sensor_id;sensor_type;location;lat;lon;timestamp;P1;P2;P0
63305;PMS5003;50735;52.060;1.248;2023-04-21T00:01:39;38;34;
63305;PMS5003;50735;52.060;1.248;2023-04-21T00:04:11;37;35;
63305;PMS5003;50735;52.060;1.248;2023-04-21T00:06:43;40;33;
63305;PMS5003;50735;52.060;1.248;2023-04-21T00:09:15;34;31;
63305;PMS5003;50735;52.060;1.248;2023-04-21T00:11:47;38;35;
63305;PMS5003;50735;52.060;1.248;2023-04-21T00:14:19;49;37;
63305;PMS5003;50735;52.060;1.248;2023-04-21T00:16:51;38;31;
63305;PMS5003;50735;52.060;1.248;2023-04-21T00:19:23;42;36;
63305;PMS5003;50735;52.060;1.248;2023-04-21T00:21:55;47;42;
63305;PMS5003;50735;52.060;1.248;2023-04-21T00:24:26;44;38;
63305;PMS5003;50735;52.060;1.248;2023-04-21T00:26:59;43;32;
63305;PMS5003;50735;52.060;1.248;2023-04-21T00:29:31;38;34;
63305;PMS5003;50735;52.060;1.248;2023-04-21T00:32:02;43;40;
63305;PMS5003;50735;52.060;1.248;2023-04-21T00:34:34;34;32;
63305;PMS5003;50735;52.060;1.248;2023-04-21T00:37:05;50;40;
63305;PMS5003;50735;52.060;1.248;2023-04-21T00:39:37;50;40;
63305;PMS5003;50735;52.060;1.248;2023-04-21T00:42:09;31;30;
63305;PMS5003;50735;52.060;1.248;2023-04-21T00:44:41;52;40;
63305;PMS5003;50735;52.060;1.248;2023-04-21T00:47:13;38;35;
63305;PMS5003;50735;52.060;1.248;2023-04-21T00:49:45;33;33;
63305;PMS5003;50735;52.060;1.248;2023-04-21T00:52:17;34;33;
63305;PMS5003;50735;52.060;1.248;2023-04-21T00:54:50;39;36;
63305;PMS5003;50735;52.060;1.248;2023-04-21T00:57:22;41;33;
63305;PMS5003;50735;52.060;1.248;2023-04-21T00:59:55;44;33;
63305;PMS5003;50735;52.060;1.248;2023-04-21T01:02:26;38;30;
63305;PMS5003;50735;52.060;1.248;2023-04-21T01:04:58;39;31;
63305;PMS5003;50735;52.060;1.248;2023-04-21T01:07:30;45;36;
63305;PMS5003;50735;52.060;1.248;2023-04-21T01:10:03;35;28;
63305;PMS5003;50735;52.060;1.248;2023-04-21T01:12:40;31;29;
63305;PMS5003;50735;52.060;1.248;2023-04-21T01:15:14;42;35;
63305;PMS5003;50735;52.060;1.248;2023-04-21T01:17:47;35;33;
63305;PMS5003;50735;52.060;1.248;2023-04-21T01:20:19;42;32;
63305;PMS5003;50735;52.060;1.248;2023-04-21T01:22:51;53;37;
63305;PMS5003;50735;52.060;1.248;2023-04-21T01:25:23;34;30;
63305;PMS5003;50735;52.060;1.248;2023-04-21T01:27:55;33;30;
63305;PMS5003;50735;52.060;1.248;2023-04-21T01:30:27;36;30;
63305;PMS5003;50735;52.060;1.248;2023-04-21T01:32:59;38;30;
63305;PMS5003;50735;52.060;1.248;2023-04-21T01:35:31;31;29;
63305;PMS5003;50735;52.060;1.248;2023-04-21T01:38:04;36;26;
63305;PMS5003;50735;52.060;1.248;2023-04-21T01:40:35;43;31;
63305;PMS5003;50735;52.060;1.248;2023-04-21T01:43:09;30;28;
63305;PMS5003;50735;52.060;1.248;2023-04-21T01:45:41;37;28;
63305;PMS5003;50735;52.060;1.248;2023-04-21T01:48:13;38;32;
63305;PMS5003;50735;52.060;1.248;2023-04-21T01:50:45;40;31;
63305;PMS5003;50735;52.060;1.248;2023-04-21T01:53:17;40;31;
63305;PMS5003;50735;52.060;1.248;2023-04-21T01:55:50;34;28;
63305;PMS5003;50735;52.060;1.248;2023-04-21T01:58:22;35;31;
63305;PMS5003;50735;52.060;1.248;2023-04-21T02:00:54;37;33;
63305;PMS5003;50735;52.060;1.248;2023-04-21T02:03:26;35;30;
63305;PMS5003;50735;52.060;1.248;2023-04-21T02:05:57;39;31;
63305;PMS5003;50735;52.060;1.248;2023-04-21T02:08:29;32;30;
63305;PMS5003;50735;52.060;1.248;2023-04-21T02:11:01;40;32;
63305;PMS5003;50735;52.060;1.248;2023-04-21T02:13:33;43;34;
63305;PMS5003;50735;52.060;1.248;2023-04-21T02:16:06;43;38;
63305;PMS5003;50735;52.060;1.248;2023-04-21T02:18:38;38;32;
63305;PMS5003;50735;52.060;1.248;2023-04-21T02:21:10;34;30;
63305;PMS5003;50735;52.060;1.248;2023-04-21T02:23:42;36;32;
63305;PMS5003;50735;52.060;1.248;2023-04-21T02:26:14;33;32;
63305;PMS5003;50735;52.060;1.248;2023-04-21T02:28:46;45;34;
63305;PMS5003;50735;52.060;1.248;2023-04-21T02:31:18;31;30;
63305;PMS5003;50735;52.060;1.248;2023-04-21T02:33:50;37;35;
63305;PMS5003;50735;52.060;1.248;2023-04-21T02:36:22;40;33;
63305;PMS5003;50735;52.060;1.248;2023-04-21T02:38:54;39;34;
63305;PMS5003;50735;52.060;1.248;2023-04-21T02:41:25;34;33;
63305;PMS5003;50735;52.060;1.248;2023-04-21T02:43:57;44;36;
63305;PMS5003;50735;52.060;1.248;2023-04-21T02:46:29;44;36;
63305;PMS5003;50735;52.060;1.248;2023-04-21T02:49:01;40;34;
63305;PMS5003;50735;52.060;1.248;2023-04-21T02:51:33;35;32;
63305;PMS5003;50735;52.060;1.248;2023-04-21T02:54:06;40;32;
63305;PMS5003;50735;52.060;1.248;2023-04-21T02:56:38;40;33;
63305;PMS5003;50735;52.060;1.248;2023-04-21T02:59:10;34;29;
63305;PMS5003;50735;52.060;1.248;2023-04-21T03:01:42;38;34;
63305;PMS5003;50735;52.060;1.248;2023-04-21T03:04:14;46;36;
63305;PMS5003;50735;52.060;1.248;2023-04-21T03:06:45;39;36;
63305;PMS5003;50735;52.060;1.248;2023-04-21T03:09:17;39;36;
63305;PMS5003;50735;52.060;1.248;2023-04-21T03:11:49;36;35;
63305;PMS5003;50735;52.060;1.248;2023-04-21T03:14:20;37;28;
63305;PMS5003;50735;52.060;1.248;2023-04-21T03:16:52;39;38;
63305;PMS5003;50735;52.060;1.248;2023-04-21T03:19:24;42;38;
63305;PMS5003;50735;52.060;1.248;2023-04-21T03:21:56;39;34;
63305;PMS5003;50735;52.060;1.248;2023-04-21T03:24:28;39;37;
63305;PMS5003;50735;52.060;1.248;2023-04-21T03:27:00;39;31;
63305;PMS5003;50735;52.060;1.248;2023-04-21T03:29:32;42;37;
63305;PMS5003;50735;52.060;1.248;2023-04-21T03:32:04;42;33;
63305;PMS5003;50735;52.060;1.248;2023-04-21T03:34:36;43;35;
63305;PMS5003;50735;52.060;1.248;2023-04-21T03:37:08;32;30;
63305;PMS5003;50735;52.060;1.248;2023-04-21T03:39:40;37;31;
63305;PMS5003;50735;52.060;1.248;2023-04-21T03:42:12;40;33;
63305;PMS5003;50735;52.060;1.248;2023-04-21T03:44:43;41;32;
63305;PMS5003;50735;52.060;1.248;2023-04-21T03:47:16;35;33;
63305;PMS5003;50735;52.060;1.248;2023-04-21T03:49:48;41;38;
63305;PMS5003;50735;52.060;1.248;2023-04-21T03:52:20;32;31;
63305;PMS5003;50735;52.060;1.248;2023-04-21T03:54:52;39;35;
63305;PMS5003;50735;52.060;1.248;2023-04-21T03:57:25;37;35;
63305;PMS5003;50735;52.060;1.248;2023-04-21T03:59:57;42;40;
63305;PMS5003;50735;52.060;1.248;2023-04-21T04:02:29;45;40;
63305;PMS5003;50735;52.060;1.248;2023-04-21T04:05:01;36;28;
63305;PMS5003;50735;52.060;1.248;2023-04-21T04:07:32;39;35;
63305;PMS5003;50735;52.060;1.248;2023-04-21T04:10:04;34;33;
63305;PMS5003;50735;52.060;1.248;2023-04-21T04:12:36;35;32;
63305;PMS5003;50735;52.060;1.248;2023-04-21T04:15:08;44;37;
63305;PMS5003;50735;52.060;1.248;2023-04-21T04:17:40;36;35;
63305;PMS5003;50735;52.060;1.248;2023-04-21T04:20:12;42;36;
63305;PMS5003;50735;52.060;1.248;2023-04-21T04:22:43;35;32;
63305;PMS5003;50735;52.060;1.248;2023-04-21T04:25:15;36;32;
63305;PMS5003;50735;52.060;1.248;2023-04-21T04:27:47;31;29;
63305;PMS5003;50735;52.060;1.248;2023-04-21T04:30:19;32;28;
63305;PMS5003;50735;52.060;1.248;2023-04-21T04:32:51;38;34;
63305;PMS5003;50735;52.060;1.248;2023-04-21T04:35:23;34;30;
63305;PMS5003;50735;52.060;1.248;2023-04-21T04:37:54;39;35;
63305;PMS5003;50735;52.060;1.248;2023-04-21T04:40:26;40;31;
63305;PMS5003;50735;52.060;1.248;2023-04-21T04:42:58;39;32;
63305;PMS5003;50735;52.060;1.248;2023-04-21T04:45:30;45;36;
63305;PMS5003;50735;52.060;1.248;2023-04-21T04:48:02;34;34;
63305;PMS5003;50735;52.060;1.248;2023-04-21T04:50:34;36;33;
63305;PMS5003;50735;52.060;1.248;2023-04-21T04:53:05;31;29;
63305;PMS5003;50735;52.060;1.248;2023-04-21T04:55:37;38;33;
63305;PMS5003;50735;52.060;1.248;2023-04-21T04:58:09;26;26;
63305;PMS5003;50735;52.060;1.248;2023-04-21T05:00:41;34;30;
63305;PMS5003;50735;52.060;1.248;2023-04-21T05:03:13;38;35;
63305;PMS5003;50735;52.060;1.248;2023-04-21T05:05:44;41;31;
63305;PMS5003;50735;52.060;1.248;2023-04-21T05:08:17;30;29;
63305;PMS5003;50735;52.060;1.248;2023-04-21T05:10:49;31;31;
63305;PMS5003;50735;52.060;1.248;2023-04-21T05:13:21;31;30;
63305;PMS5003;50735;52.060;1.248;2023-04-21T05:15:55;29;26;
63305;PMS5003;50735;52.060;1.248;2023-04-21T05:18:28;37;34;
63305;PMS5003;50735;52.060;1.248;2023-04-21T05:21:00;36;33;
63305;PMS5003;50735;52.060;1.248;2023-04-21T05:23:33;35;32;
63305;PMS5003;50735;52.060;1.248;2023-04-21T05:26:04;36;33;
63305;PMS5003;50735;52.060;1.248;2023-04-21T05:28:36;36;32;
63305;PMS5003;50735;52.060;1.248;2023-04-21T05:31:08;34;33;
63305;PMS5003;50735;52.060;1.248;2023-04-21T05:33:40;35;33;
63305;PMS5003;50735;52.060;1.248;2023-04-21T05:36:12;38;28;
63305;PMS5003;50735;52.060;1.248;2023-04-21T05:38:44;39;33;
63305;PMS5003;50735;52.060;1.248;2023-04-21T05:41:16;31;27;
63305;PMS5003;50735;52.060;1.248;2023-04-21T05:43:48;32;29;
63305;PMS5003;50735;52.060;1.248;2023-04-21T05:46:20;34;32;
63305;PMS5003;50735;52.060;1.248;2023-04-21T05:48:52;37;35;
63305;PMS5003;50735;52.060;1.248;2023-04-21T05:51:24;34;29;
63305;PMS5003;50735;52.060;1.248;2023-04-21T05:53:56;30;29;
63305;PMS5003;50735;52.060;1.248;2023-04-21T05:56:27;31;28;
63305;PMS5003;50735;52.060;1.248;2023-04-21T05:58:59;33;31;
63305;PMS5003;50735;52.060;1.248;2023-04-21T06:01:32;30;28;
63305;PMS5003;50735;52.060;1.248;2023-04-21T06:04:03;33;31;
63305;PMS5003;50735;52.060;1.248;2023-04-21T06:06:35;29;27;
63305;PMS5003;50735;52.060;1.248;2023-04-21T06:09:07;31;28;
63305;PMS5003;50735;52.060;1.248;2023-04-21T06:11:39;30;29;
63305;PMS5003;50735;52.060;1.248;2023-04-21T06:14:11;32;29;
63305;PMS5003;50735;52.060;1.248;2023-04-21T06:16:43;30;28;
63305;PMS5003;50735;52.060;1.248;2023-04-21T06:19:15;31;31;
63305;PMS5003;50735;52.060;1.248;2023-04-21T06:21:47;30;28;
63305;PMS5003;50735;52.060;1.248;2023-04-21T06:24:19;40;30;
63305;PMS5003;50735;52.060;1.248;2023-04-21T06:26:51;33;32;
63305;PMS5003;50735;52.060;1.248;2023-04-21T06:29:23;27;24;
63305;PMS5003;50735;52.060;1.248;2023-04-21T06:31:55;28;26;
63305;PMS5003;50735;52.060;1.248;2023-04-21T06:34:26;34;30;
63305;PMS5003;50735;52.060;1.248;2023-04-21T06:36:58;34;30;
63305;PMS5003;50735;52.060;1.248;2023-04-21T06:39:31;34;30;
63305;PMS5003;50735;52.060;1.248;2023-04-21T06:42:03;31;27;
63305;PMS5003;50735;52.060;1.248;2023-04-21T06:44:34;29;28;
63305;PMS5003;50735;52.060;1.248;2023-04-21T06:47:06;28;26;
63305;PMS5003;50735;52.060;1.248;2023-04-21T06:49:38;26;26;
63305;PMS5003;50735;52.060;1.248;2023-04-21T06:52:10;31;29;
63305;PMS5003;50735;52.060;1.248;2023-04-21T06:54:42;31;28;
63305;PMS5003;50735;52.060;1.248;2023-04-21T06:57:14;34;28;
63305;PMS5003;50735;52.060;1.248;2023-04-21T06:59:46;30;27;
63305;PMS5003;50735;52.060;1.248;2023-04-21T07:02:18;30;24;
63305;PMS5003;50735;52.060;1.248;2023-04-21T07:04:49;25;24;
63305;PMS5003;50735;52.060;1.248;2023-04-21T07:07:22;28;26;
63305;PMS5003;50735;52.060;1.248;2023-04-21T07:09:53;28;24;
63305;PMS5003;50735;52.060;1.248;2023-04-21T07:12:25;26;24;
63305;PMS5003;50735;52.060;1.248;2023-04-21T07:14:57;24;24;
63305;PMS5003;50735;52.060;1.248;2023-04-21T07:17:29;29;24;
63305;PMS5003;50735;52.060;1.248;2023-04-21T07:20:01;28;22;
63305;PMS5003;50735;52.060;1.248;2023-04-21T07:22:32;32;27;
63305;PMS5003;50735;52.060;1.248;2023-04-21T07:25:05;30;27;
63305;PMS5003;50735;52.060;1.248;2023-04-21T07:27:38;28;24;
63305;PMS5003;50735;52.060;1.248;2023-04-21T07:30:10;30;27;
63305;PMS5003;50735;52.060;1.248;2023-04-21T07:32:42;28;24;
63305;PMS5003;50735;52.060;1.248;2023-04-21T07:35:14;32;27;
63305;PMS5003;50735;52.060;1.248;2023-04-21T07:37:46;36;31;
63305;PMS5003;50735;52.060;1.248;2023-04-21T07:40:18;27;25;
63305;PMS5003;50735;52.060;1.248;2023-04-21T07:42:50;29;28;
63305;PMS5003;50735;52.060;1.248;2023-04-21T07:45:23;25;22;
63305;PMS5003;50735;52.060;1.248;2023-04-21T07:47:55;30;24;
63305;PMS5003;50735;52.060;1.248;2023-04-21T07:50:27;35;25;
63305;PMS5003;50735;52.060;1.248;2023-04-21T07:52:59;32;27;
63305;PMS5003;50735;52.060;1.248;2023-04-21T07:55:31;30;28;
63305;PMS5003;50735;52.060;1.248;2023-04-21T07:58:03;30;23;
63305;PMS5003;50735;52.060;1.248;2023-04-21T08:00:35;31;28;
63305;PMS5003;50735;52.060;1.248;2023-04-21T08:03:07;26;24;
63305;PMS5003;50735;52.060;1.248;2023-04-21T08:05:40;32;24;
63305;PMS5003;50735;52.060;1.248;2023-04-21T08:08:12;26;24;
63305;PMS5003;50735;52.060;1.248;2023-04-21T08:10:44;27;26;
63305;PMS5003;50735;52.060;1.248;2023-04-21T08:13:15;22;19;
63305;PMS5003;50735;52.060;1.248;2023-04-21T08:15:47;27;21;
63305;PMS5003;50735;52.060;1.248;2023-04-21T08:18:19;24;22;
63305;PMS5003;50735;52.060;1.248;2023-04-21T08:20:51;17;16;
63305;PMS5003;50735;52.060;1.248;2023-04-21T08:23:23;26;23;
63305;PMS5003;50735;52.060;1.248;2023-04-21T08:25:55;20;20;
63305;PMS5003;50735;52.060;1.248;2023-04-21T08:28:27;21;20;
63305;PMS5003;50735;52.060;1.248;2023-04-21T08:30:59;19;16;
63305;PMS5003;50735;52.060;1.248;2023-04-21T08:33:31;28;27;
63305;PMS5003;50735;52.060;1.248;2023-04-21T08:36:03;27;27;
63305;PMS5003;50735;52.060;1.248;2023-04-21T08:38:35;24;24;
63305;PMS5003;50735;52.060;1.248;2023-04-21T08:41:07;27;23;
63305;PMS5003;50735;52.060;1.248;2023-04-21T08:43:40;25;24;
63305;PMS5003;50735;52.060;1.248;2023-04-21T08:46:12;30;29;
63305;PMS5003;50735;52.060;1.248;2023-04-21T08:48:45;28;25;
63305;PMS5003;50735;52.060;1.248;2023-04-21T08:51:20;26;25;
63305;PMS5003;50735;52.060;1.248;2023-04-21T08:53:53;34;31;
63305;PMS5003;50735;52.060;1.248;2023-04-21T08:56:25;26;23;
63305;PMS5003;50735;52.060;1.248;2023-04-21T08:58:58;28;26;
63305;PMS5003;50735;52.060;1.248;2023-04-21T09:01:29;21;21;
63305;PMS5003;50735;52.060;1.248;2023-04-21T09:04:17;26;24;
63305;PMS5003;50735;52.060;1.248;2023-04-21T09:06:49;32;29;
63305;PMS5003;50735;52.060;1.248;2023-04-21T09:09:21;33;28;
63305;PMS5003;50735;52.060;1.248;2023-04-21T09:11:53;38;30;
63305;PMS5003;50735;52.060;1.248;2023-04-21T09:14:30;27;24;
63305;PMS5003;50735;52.060;1.248;2023-04-21T09:17:03;36;32;
63305;PMS5003;50735;52.060;1.248;2023-04-21T09:19:35;28;26;
63305;PMS5003;50735;52.060;1.248;2023-04-21T09:22:07;34;31;
63305;PMS5003;50735;52.060;1.248;2023-04-21T09:24:43;33;30;
63305;PMS5003;50735;52.060;1.248;2023-04-21T09:27:15;36;33;
63305;PMS5003;50735;52.060;1.248;2023-04-21T09:29:47;33;30;
63305;PMS5003;50735;52.060;1.248;2023-04-21T09:32:19;37;31;
63305;PMS5003;50735;52.060;1.248;2023-04-21T09:34:51;27;24;
63305;PMS5003;50735;52.060;1.248;2023-04-21T09:37:31;33;27;
63305;PMS5003;50735;52.060;1.248;2023-04-21T09:40:03;39;33;
63305;PMS5003;50735;52.060;1.248;2023-04-21T09:42:36;30;27;
63305;PMS5003;50735;52.060;1.248;2023-04-21T09:45:09;30;30;
63305;PMS5003;50735;52.060;1.248;2023-04-21T09:47:41;25;25;
63305;PMS5003;50735;52.060;1.248;2023-04-21T09:50:13;30;25;
63305;PMS5003;50735;52.060;1.248;2023-04-21T09:52:46;30;28;
63305;PMS5003;50735;52.060;1.248;2023-04-21T09:55:23;32;27;
63305;PMS5003;50735;52.060;1.248;2023-04-21T09:57:58;31;29;
63305;PMS5003;50735;52.060;1.248;2023-04-21T10:00:31;33;29;
63305;PMS5003;50735;52.060;1.248;2023-04-21T10:03:04;38;32;
63305;PMS5003;50735;52.060;1.248;2023-04-21T10:05:36;36;27;
63305;PMS5003;50735;52.060;1.248;2023-04-21T10:08:09;38;37;
63305;PMS5003;50735;52.060;1.248;2023-04-21T10:10:42;39;36;
63305;PMS5003;50735;52.060;1.248;2023-04-21T10:13:15;32;32;
63305;PMS5003;50735;52.060;1.248;2023-04-21T10:15:48;35;33;
63305;PMS5003;50735;52.060;1.248;2023-04-21T10:18:31;41;35;
63305;PMS5003;50735;52.060;1.248;2023-04-21T10:21:06;44;39;
63305;PMS5003;50735;52.060;1.248;2023-04-21T10:23:40;36;31;
63305;PMS5003;50735;52.060;1.248;2023-04-21T10:26:16;39;36;
63305;PMS5003;50735;52.060;1.248;2023-04-21T10:28:52;37;34;
63305;PMS5003;50735;52.060;1.248;2023-04-21T10:31:28;38;35;
63305;PMS5003;50735;52.060;1.248;2023-04-21T10:34:19;34;30;
63305;PMS5003;50735;52.060;1.248;2023-04-21T10:37:25;39;35;
63305;PMS5003;50735;52.060;1.248;2023-04-21T10:40:01;42;37;
63305;PMS5003;50735;52.060;1.248;2023-04-21T10:42:34;43;39;
63305;PMS5003;50735;52.060;1.248;2023-04-21T10:45:09;29;29;
63305;PMS5003;50735;52.060;1.248;2023-04-21T10:47:43;31;30;
63305;PMS5003;50735;52.060;1.248;2023-04-21T10:50:17;30;29;
63305;PMS5003;50735;52.060;1.248;2023-04-21T10:52:52;36;33;
63305;PMS5003;50735;52.060;1.248;2023-04-21T10:55:27;43;40;
63305;PMS5003;50735;52.060;1.248;2023-04-21T10:58:00;36;33;
63305;PMS5003;50735;52.060;1.248;2023-04-21T11:00:35;31;31;
63305;PMS5003;50735;52.060;1.248;2023-04-21T11:03:07;31;28;
63305;PMS5003;50735;52.060;1.248;2023-04-21T11:05:39;37;32;
63305;PMS5003;50735;52.060;1.248;2023-04-21T11:08:13;30;27;
63305;PMS5003;50735;52.060;1.248;2023-04-21T11:10:48;34;32;
63305;PMS5003;50735;52.060;1.248;2023-04-21T11:13:23;26;23;
63305;PMS5003;50735;52.060;1.248;2023-04-21T11:15:56;31;27;
63305;PMS5003;50735;52.060;1.248;2023-04-21T11:18:31;28;27;
63305;PMS5003;50735;52.060;1.248;2023-04-21T11:21:06;25;25;
63305;PMS5003;50735;52.060;1.248;2023-04-21T11:23:39;30;24;
63305;PMS5003;50735;52.060;1.248;2023-04-21T11:26:10;26;25;
63305;PMS5003;50735;52.060;1.248;2023-04-21T11:28:42;36;29;
63305;PMS5003;50735;52.060;1.248;2023-04-21T11:31:18;24;23;
63305;PMS5003;50735;52.060;1.248;2023-04-21T11:33:50;36;28;
63305;PMS5003;50735;52.060;1.248;2023-04-21T11:36:22;32;31;
63305;PMS5003;50735;52.060;1.248;2023-04-21T11:38:53;35;33;
63305;PMS5003;50735;52.060;1.248;2023-04-21T11:41:26;33;31;
63305;PMS5003;50735;52.060;1.248;2023-04-21T11:43:57;39;31;
63305;PMS5003;50735;52.060;1.248;2023-04-21T11:46:29;26;25;
63305;PMS5003;50735;52.060;1.248;2023-04-21T11:49:02;30;27;
63305;PMS5003;50735;52.060;1.248;2023-04-21T11:51:36;29;25;
63305;PMS5003;50735;52.060;1.248;2023-04-21T11:54:10;28;27;
63305;PMS5003;50735;52.060;1.248;2023-04-21T11:56:46;35;31;
63305;PMS5003;50735;52.060;1.248;2023-04-21T11:59:20;30;30;
63305;PMS5003;50735;52.060;1.248;2023-04-21T12:01:53;30;29;
63305;PMS5003;50735;52.060;1.248;2023-04-21T12:04:26;34;30;
63305;PMS5003;50735;52.060;1.248;2023-04-21T12:06:58;31;28;
63305;PMS5003;50735;52.060;1.248;2023-04-21T12:09:31;29;29;
63305;PMS5003;50735;52.060;1.248;2023-04-21T12:12:06;30;27;
63305;PMS5003;50735;52.060;1.248;2023-04-21T12:14:40;32;29;
63305;PMS5003;50735;52.060;1.248;2023-04-21T12:17:15;35;31;
63305;PMS5003;50735;52.060;1.248;2023-04-21T12:19:48;30;28;
63305;PMS5003;50735;52.060;1.248;2023-04-21T12:22:20;37;29;
63305;PMS5003;50735;52.060;1.248;2023-04-21T12:24:51;31;29;
63305;PMS5003;50735;52.060;1.248;2023-04-21T12:27:23;36;34;
63305;PMS5003;50735;52.060;1.248;2023-04-21T12:29:57;35;34;
63305;PMS5003;50735;52.060;1.248;2023-04-21T12:32:29;34;32;
63305;PMS5003;50735;52.060;1.248;2023-04-21T12:35:01;32;32;
63305;PMS5003;50735;52.060;1.248;2023-04-21T12:37:33;38;37;
63305;PMS5003;50735;52.060;1.248;2023-04-21T12:40:05;34;32;
63305;PMS5003;50735;52.060;1.248;2023-04-21T12:42:38;38;38;
63305;PMS5003;50735;52.060;1.248;2023-04-21T12:45:10;41;37;
63305;PMS5003;50735;52.060;1.248;2023-04-21T12:47:42;41;37;
63305;PMS5003;50735;52.060;1.248;2023-04-21T12:50:14;35;32;
63305;PMS5003;50735;52.060;1.248;2023-04-21T12:52:46;40;37;
63305;PMS5003;50735;52.060;1.248;2023-04-21T12:55:18;36;34;
63305;PMS5003;50735;52.060;1.248;2023-04-21T12:57:50;39;36;
63305;PMS5003;50735;52.060;1.248;2023-04-21T13:00:22;41;35;
63305;PMS5003;50735;52.060;1.248;2023-04-21T13:02:55;33;32;
63305;PMS5003;50735;52.060;1.248;2023-04-21T13:05:27;36;30;
63305;PMS5003;50735;52.060;1.248;2023-04-21T13:07:58;37;34;
63305;PMS5003;50735;52.060;1.248;2023-04-21T13:10:30;47;37;
63305;PMS5003;50735;52.060;1.248;2023-04-21T13:13:02;40;36;
63305;PMS5003;50735;52.060;1.248;2023-04-21T13:15:34;42;38;
63305;PMS5003;50735;52.060;1.248;2023-04-21T13:18:06;44;38;
63305;PMS5003;50735;52.060;1.248;2023-04-21T13:20:37;34;31;
63305;PMS5003;50735;52.060;1.248;2023-04-21T13:23:09;39;34;
63305;PMS5003;50735;52.060;1.248;2023-04-21T13:25:41;36;32;
63305;PMS5003;50735;52.060;1.248;2023-04-21T13:28:13;38;35;
63305;PMS5003;50735;52.060;1.248;2023-04-21T13:30:46;41;38;
63305;PMS5003;50735;52.060;1.248;2023-04-21T13:33:18;36;34;
63305;PMS5003;50735;52.060;1.248;2023-04-21T13:35:51;46;42;
63305;PMS5003;50735;52.060;1.248;2023-04-21T13:38:23;41;36;
63305;PMS5003;50735;52.060;1.248;2023-04-21T13:40:55;44;37;
63305;PMS5003;50735;52.060;1.248;2023-04-21T13:43:26;47;41;
63305;PMS5003;50735;52.060;1.248;2023-04-21T13:45:59;52;42;
63305;PMS5003;50735;52.060;1.248;2023-04-21T13:48:30;44;41;
63305;PMS5003;50735;52.060;1.248;2023-04-21T13:51:03;47;42;
63305;PMS5003;50735;52.060;1.248;2023-04-21T13:53:35;37;35;
63305;PMS5003;50735;52.060;1.248;2023-04-21T13:56:07;50;43;
63305;PMS5003;50735;52.060;1.248;2023-04-21T13:58:39;48;43;
63305;PMS5003;50735;52.060;1.248;2023-04-21T14:01:11;45;38;
63305;PMS5003;50735;52.060;1.248;2023-04-21T14:03:44;33;33;
63305;PMS5003;50735;52.060;1.248;2023-04-21T14:06:16;35;35;
63305;PMS5003;50735;52.060;1.248;2023-04-21T14:08:47;39;38;
63305;PMS5003;50735;52.060;1.248;2023-04-21T14:11:19;38;37;
63305;PMS5003;50735;52.060;1.248;2023-04-21T14:13:51;44;39;
63305;PMS5003;50735;52.060;1.248;2023-04-21T14:16:23;45;41;
63305;PMS5003;50735;52.060;1.248;2023-04-21T14:18:55;34;32;
63305;PMS5003;50735;52.060;1.248;2023-04-21T14:21:27;46;42;
63305;PMS5003;50735;52.060;1.248;2023-04-21T14:23:59;38;37;
63305;PMS5003;50735;52.060;1.248;2023-04-21T14:26:31;42;41;
63305;PMS5003;50735;52.060;1.248;2023-04-21T14:29:02;46;43;
63305;PMS5003;50735;52.060;1.248;2023-04-21T14:31:34;47;40;
63305;PMS5003;50735;52.060;1.248;2023-04-21T14:34:06;46;39;
63305;PMS5003;50735;52.060;1.248;2023-04-21T14:36:37;39;35;
63305;PMS5003;50735;52.060;1.248;2023-04-21T14:39:09;45;42;
63305;PMS5003;50735;52.060;1.248;2023-04-21T14:41:41;47;45;
63305;PMS5003;50735;52.060;1.248;2023-04-21T14:44:13;45;45;
63305;PMS5003;50735;52.060;1.248;2023-04-21T14:46:45;41;40;
63305;PMS5003;50735;52.060;1.248;2023-04-21T14:49:18;50;46;
63305;PMS5003;50735;52.060;1.248;2023-04-21T14:51:50;48;44;
63305;PMS5003;50735;52.060;1.248;2023-04-21T14:54:22;49;47;
63305;PMS5003;50735;52.060;1.248;2023-04-21T14:56:54;40;37;
63305;PMS5003;50735;52.060;1.248;2023-04-21T14:59:26;46;40;
63305;PMS5003;50735;52.060;1.248;2023-04-21T15:01:58;46;39;
63305;PMS5003;50735;52.060;1.248;2023-04-21T15:04:30;46;38;
63305;PMS5003;50735;52.060;1.248;2023-04-21T15:07:02;37;34;
63305;PMS5003;50735;52.060;1.248;2023-04-21T15:09:33;44;43;
63305;PMS5003;50735;52.060;1.248;2023-04-21T15:12:05;37;36;
63305;PMS5003;50735;52.060;1.248;2023-04-21T15:14:37;46;43;
63305;PMS5003;50735;52.060;1.248;2023-04-21T15:17:10;41;35;
63305;PMS5003;50735;52.060;1.248;2023-04-21T15:19:42;36;33;
63305;PMS5003;50735;52.060;1.248;2023-04-21T15:22:14;37;35;
63305;PMS5003;50735;52.060;1.248;2023-04-21T15:24:46;39;36;
63305;PMS5003;50735;52.060;1.248;2023-04-21T15:27:18;40;38;
63305;PMS5003;50735;52.060;1.248;2023-04-21T15:29:50;46;38;
63305;PMS5003;50735;52.060;1.248;2023-04-21T15:32:23;40;35;
63305;PMS5003;50735;52.060;1.248;2023-04-21T15:34:55;47;40;
63305;PMS5003;50735;52.060;1.248;2023-04-21T15:37:26;41;41;
63305;PMS5003;50735;52.060;1.248;2023-04-21T15:39:58;36;35;
63305;PMS5003;50735;52.060;1.248;2023-04-21T15:42:31;46;35;
63305;PMS5003;50735;52.060;1.248;2023-04-21T15:45:02;45;36;
63305;PMS5003;50735;52.060;1.248;2023-04-21T15:47:35;41;35;
63305;PMS5003;50735;52.060;1.248;2023-04-21T15:50:07;40;37;
63305;PMS5003;50735;52.060;1.248;2023-04-21T15:52:39;44;41;
63305;PMS5003;50735;52.060;1.248;2023-04-21T15:55:11;44;41;
63305;PMS5003;50735;52.060;1.248;2023-04-21T15:57:44;43;38;
63305;PMS5003;50735;52.060;1.248;2023-04-21T16:00:16;37;35;
63305;PMS5003;50735;52.060;1.248;2023-04-21T16:02:48;37;37;
63305;PMS5003;50735;52.060;1.248;2023-04-21T16:05:20;49;44;
63305;PMS5003;50735;52.060;1.248;2023-04-21T16:07:52;43;38;
63305;PMS5003;50735;52.060;1.248;2023-04-21T16:10:24;42;37;
63305;PMS5003;50735;52.060;1.248;2023-04-21T16:12:55;44;38;
63305;PMS5003;50735;52.060;1.248;2023-04-21T16:15:27;41;37;
63305;PMS5003;50735;52.060;1.248;2023-04-21T16:17:59;48;42;
63305;PMS5003;50735;52.060;1.248;2023-04-21T16:20:31;36;34;
63305;PMS5003;50735;52.060;1.248;2023-04-21T16:23:03;46;43;
63305;PMS5003;50735;52.060;1.248;2023-04-21T16:25:35;40;40;
63305;PMS5003;50735;52.060;1.248;2023-04-21T16:28:07;50;42;
63305;PMS5003;50735;52.060;1.248;2023-04-21T16:30:40;46;44;
63305;PMS5003;50735;52.060;1.248;2023-04-21T16:33:12;47;42;
63305;PMS5003;50735;52.060;1.248;2023-04-21T16:35:45;43;39;
63305;PMS5003;50735;52.060;1.248;2023-04-21T16:38:16;44;40;
63305;PMS5003;50735;52.060;1.248;2023-04-21T16:40:48;41;40;
63305;PMS5003;50735;52.060;1.248;2023-04-21T16:43:20;51;42;
63305;PMS5003;50735;52.060;1.248;2023-04-21T16:45:52;48;45;
63305;PMS5003;50735;52.060;1.248;2023-04-21T16:48:24;47;39;
63305;PMS5003;50735;52.060;1.248;2023-04-21T16:50:56;44;40;
63305;PMS5003;50735;52.060;1.248;2023-04-21T16:53:27;52;44;